createdAt,value
2023-04-06T00:00:34.670Z,97513.48
2023-04-06T00:03:05.174Z,97504.98
2023-04-06T00:05:34.731Z,97499.77
2023-04-06T00:08:03.427Z,97502.06
2023-04-06T00:10:31.627Z,97496.91
2023-04-06T00:13:06.969Z,97492.67
2023-04-06T00:15:35.718Z,97485.67
2023-04-06T00:18:04.162Z,97483.63
2023-04-06T00:20:34.684Z,97479.58
2023-04-06T00:23:02.801Z,97477.68
2023-04-06T00:25:31.917Z,97469.30
2023-04-06T00:27:59.932Z,97465.98
2023-04-06T00:30:28.181Z,97465.00
2023-04-06T00:32:56.856Z,97463.76
2023-04-06T00:35:25.833Z,97464.27
2023-04-06T00:37:54.007Z,97458.98
2023-04-06T00:40:22.107Z,97460.94
2023-04-06T00:42:51.004Z,97453.39
2023-04-06T00:45:19.272Z,97447.88
2023-04-06T00:47:47.417Z,97442.27
2023-04-06T00:50:15.767Z,97437.98
2023-04-06T00:52:44.156Z,97437.26
2023-04-06T00:57:58.337Z,97421.31
2023-04-06T01:00:31.704Z,97418.52
2023-04-06T01:03:15.160Z,97415.13
2023-04-06T01:05:45.426Z,97410.90
2023-04-06T01:08:21.810Z,97404.50
2023-04-06T01:10:50.250Z,97399.45
2023-04-06T01:13:25.606Z,97395.52
2023-04-06T01:16:02.306Z,97398.27
2023-04-06T01:19:08.908Z,97389.19
2023-04-06T01:21:39.184Z,97388.15
2023-04-06T01:24:16.098Z,97384.54
2023-04-06T01:27:04.771Z,97378.36
2023-04-06T01:29:48.205Z,97379.71
2023-04-06T01:32:21.825Z,97375.34
2023-04-06T01:34:51.911Z,97376.13
2023-04-06T01:37:20.436Z,97373.54
2023-04-06T01:39:49.590Z,97366.11
2023-04-06T01:42:24.872Z,97355.29
2023-04-06T01:44:53.169Z,97351.79
2023-04-06T01:47:21.541Z,97352.23
2023-04-06T01:49:50.140Z,97348.44
2023-04-06T01:52:19.044Z,97342.58
2023-04-06T01:54:56.598Z,97343.16
2023-04-06T01:57:46.377Z,97334.69
2023-04-06T02:00:28.135Z,97328.78
2023-04-06T02:02:57.343Z,97325.67
2023-04-06T02:05:27.568Z,97321.94
2023-04-06T02:07:55.789Z,97317.08
2023-04-06T02:10:31.586Z,97306.17
2023-04-06T02:13:00.932Z,97301.95
2023-04-06T02:15:29.312Z,97295.15
2023-04-06T02:18:00.476Z,97298.42
2023-04-06T02:20:28.825Z,97290.05
2023-04-06T02:22:59.731Z,97289.98
2023-04-06T02:25:27.843Z,97289.02
2023-04-06T02:27:56.292Z,97284.02
2023-04-06T02:30:25.520Z,97278.71
2023-04-06T02:32:53.943Z,97278.69
2023-04-06T02:35:22.115Z,97274.08
2023-04-06T02:37:54.474Z,97271.93
2023-04-06T02:40:22.511Z,97270.14
2023-04-06T02:42:51.573Z,97265.48
2023-04-06T02:45:21.543Z,97268.76
2023-04-06T02:47:50.128Z,97267.06
2023-04-06T02:50:18.923Z,97263.42
2023-04-06T02:52:55.177Z,97261.28
2023-04-06T02:55:23.720Z,97249.89
2023-04-06T02:57:51.870Z,97250.08
2023-04-06T03:00:22.004Z,97246.80
2023-04-06T03:02:52.053Z,97240.02
2023-04-06T03:05:20.661Z,97239.89
2023-04-06T03:07:49.142Z,97241.98
2023-04-06T03:10:36.257Z,97242.61
2023-04-06T03:13:05.854Z,97235.92
2023-04-06T03:15:56.195Z,97229.35
2023-04-06T03:18:25.606Z,97233.95
2023-04-06T03:20:55.191Z,97236.06
2023-04-06T03:23:33.379Z,97235.61
2023-04-06T03:26:03.297Z,97235.04
2023-04-06T03:28:31.564Z,97233.80
2023-04-06T03:31:06.846Z,97233.06
2023-04-06T03:34:01.782Z,97225.73
2023-04-06T03:36:32.849Z,97231.92
2023-04-06T03:39:01.336Z,97231.05
2023-04-06T03:41:29.750Z,97235.42
2023-04-06T03:44:19.855Z,97236.02
2023-04-06T03:46:48.706Z,97234.80
2023-04-06T03:49:23.066Z,97231.13
2023-04-06T03:51:53.633Z,97225.27
2023-04-06T03:54:22.779Z,97224.63
2023-04-06T03:56:50.902Z,97216.55
2023-04-06T03:59:23.014Z,97210.11
2023-04-06T04:01:56.921Z,97202.89
2023-04-06T04:04:25.250Z,97209.02
2023-04-06T04:06:53.642Z,97208.27
2023-04-06T04:09:22.834Z,97203.84
2023-04-06T04:11:52.346Z,97194.73
2023-04-06T04:14:21.567Z,97188.89
2023-04-06T04:16:49.729Z,97189.35
2023-04-06T04:19:17.822Z,97184.02
2023-04-06T04:21:47.218Z,97182.59
2023-04-06T04:24:18.750Z,97178.07
2023-04-06T04:26:47.436Z,97180.66
2023-04-06T04:29:16.545Z,97175.74
2023-04-06T04:31:45.617Z,97175.81
2023-04-06T04:34:17.291Z,97171.67
2023-04-06T04:36:48.329Z,97169.95
2023-04-06T04:39:23.177Z,97159.08
2023-04-06T04:41:58.044Z,97160.12
2023-04-06T04:44:26.738Z,97160.61
2023-04-06T04:46:55.954Z,97157.76
2023-04-06T04:49:30.447Z,97161.66
2023-04-06T04:51:58.582Z,97163.30
2023-04-06T04:54:42.418Z,97177.06
2023-04-06T04:57:11.861Z,97184.84
2023-04-06T04:59:44.017Z,97188.30
2023-04-06T05:02:18.337Z,97186.73
2023-04-06T05:05:06.386Z,97185.33
2023-04-06T05:07:35.019Z,97204.73
2023-04-06T05:10:05.406Z,97220.30
2023-04-06T05:12:37.114Z,97216.17
2023-04-06T05:15:10.367Z,97212.99
2023-04-06T05:17:39.721Z,97206.59
2023-04-06T05:20:08.815Z,97187.11
2023-04-06T05:22:40.866Z,97185.98
2023-04-06T05:25:12.182Z,97175.09
2023-04-06T05:27:41.568Z,97162.76
2023-04-06T05:30:21.562Z,97158.02
2023-04-06T05:32:52.083Z,97149.10
2023-04-06T05:35:21.966Z,97127.05
2023-04-06T05:37:53.101Z,97124.74
2023-04-06T05:40:24.386Z,97123.87
2023-04-06T05:42:53.030Z,97108.30
2023-04-06T05:45:22.394Z,97115.97
2023-04-06T05:47:54.227Z,97112.19
2023-04-06T05:50:27.666Z,97099.16
2023-04-06T05:52:55.969Z,97089.86
2023-04-06T05:55:26.150Z,97077.55
2023-04-06T05:58:02.718Z,97078.70
2023-04-06T06:00:31.905Z,97081.98
2023-04-06T06:03:23.857Z,97075.89
2023-04-06T06:05:55.356Z,97075.55
2023-04-06T06:08:30.433Z,97069.46
2023-04-06T06:11:03.135Z,97071.03
2023-04-06T06:13:32.392Z,97102.95
2023-04-06T06:16:00.778Z,97141.04
2023-04-06T06:18:35.698Z,97147.42
2023-04-06T06:21:04.101Z,97146.41
2023-04-06T06:23:32.878Z,97137.70
2023-04-06T06:26:02.190Z,97147.16
2023-04-06T06:28:31.110Z,97148.97
2023-04-06T06:30:59.598Z,97148.23
2023-04-06T06:33:29.287Z,97146.78
2023-04-06T06:35:58.200Z,97142.31
2023-04-06T06:38:27.202Z,97140.69
2023-04-06T06:40:58.235Z,97141.39
2023-04-06T06:43:28.331Z,97137.58
2023-04-06T06:46:02.850Z,97145.39
2023-04-06T06:48:31.876Z,97143.65
2023-04-06T06:50:59.887Z,97132.05
2023-04-06T06:53:27.944Z,97129.05
2023-04-06T06:55:57.111Z,97131.42
2023-04-06T06:58:25.508Z,97129.08
2023-04-06T07:00:58.420Z,97133.88
2023-04-06T07:03:27.172Z,97128.42
2023-04-06T07:05:56.630Z,97133.25
2023-04-06T07:08:26.561Z,97133.71
2023-04-06T07:10:57.161Z,97129.80
2023-04-06T07:13:31.039Z,97127.58
2023-04-06T07:16:00.129Z,97122.05
2023-04-06T07:18:30.192Z,97128.10
2023-04-06T07:21:00.445Z,97119.64
2023-04-06T07:23:29.125Z,97120.09
2023-04-06T07:25:57.493Z,97121.48
2023-04-06T07:28:25.588Z,97118.30
2023-04-06T07:30:55.564Z,97123.53
2023-04-06T07:33:32.141Z,97123.81
2023-04-06T07:36:01.016Z,97127.21
2023-04-06T07:38:29.928Z,97135.52
2023-04-06T07:40:58.197Z,97133.47
2023-04-06T07:43:26.792Z,97134.40
2023-04-06T07:45:55.874Z,97134.35
2023-04-06T07:48:26.200Z,97123.88
2023-04-06T07:51:04.932Z,97122.50
2023-04-06T07:53:34.018Z,97123.42
2023-04-06T07:56:02.226Z,97126.89
2023-04-06T07:58:30.988Z,97127.59
2023-04-06T08:01:05.235Z,97128.05
2023-04-06T08:03:35.943Z,97126.80
2023-04-06T08:06:04.820Z,97125.10
2023-04-06T08:08:33.103Z,97111.90
2023-04-06T08:11:03.824Z,97115.93
2023-04-06T08:13:32.527Z,97111.55
2023-04-06T08:16:01.712Z,97110.60
2023-04-06T08:18:31.230Z,97111.05
2023-04-06T08:20:59.316Z,97111.75
2023-04-06T08:23:28.492Z,97121.83
2023-04-06T08:25:57.179Z,97119.58
2023-04-06T08:28:26.252Z,97114.83
2023-04-06T08:30:54.537Z,97118.58
2023-04-06T08:33:22.936Z,97118.78
2023-04-06T08:35:51.734Z,97115.08
2023-04-06T08:38:21.204Z,97109.12
2023-04-06T08:40:50.971Z,97107.33
2023-04-06T08:43:19.622Z,97106.10
2023-04-06T08:45:49.892Z,97104.05
2023-04-06T08:48:18.549Z,97098.77
2023-04-06T08:50:47.021Z,97089.85
2023-04-06T08:53:15.130Z,97086.52
2023-04-06T08:55:44.380Z,97081.52
2023-04-06T08:58:12.423Z,97075.39
2023-04-06T09:00:40.910Z,97070.98
2023-04-06T09:03:27.366Z,97072.88
2023-04-06T09:05:56.533Z,97070.73
2023-04-06T09:08:25.018Z,97074.88
2023-04-06T09:10:53.297Z,97071.47
2023-04-06T09:13:25.439Z,97075.58
2023-04-06T09:16:05.482Z,97073.10
2023-04-06T09:18:34.531Z,97070.45
2023-04-06T09:21:06.419Z,97081.11
2023-04-06T09:23:34.830Z,97078.85
2023-04-06T09:26:18.468Z,97078.85
2023-04-06T09:28:51.021Z,97081.33
2023-04-06T09:31:26.782Z,97079.81
2023-04-06T09:33:55.265Z,97085.55
2023-04-06T09:36:36.189Z,97081.05
2023-04-06T09:39:05.438Z,97079.27
2023-04-06T09:41:35.788Z,97077.77
2023-04-06T09:44:11.350Z,97078.29
2023-04-06T09:46:57.780Z,97074.55
2023-04-06T09:49:29.034Z,97074.55
2023-04-06T09:52:01.646Z,97070.52
2023-04-06T09:54:31.356Z,97067.20
2023-04-06T09:57:14.844Z,97065.93
2023-04-06T10:00:04.882Z,97070.83
2023-04-06T10:02:48.747Z,97065.30
2023-04-06T10:05:24.388Z,97067.26
2023-04-06T10:08:00.239Z,97070.11
2023-04-06T10:10:29.676Z,97067.36
2023-04-06T10:12:58.955Z,97072.66
2023-04-06T10:15:28.918Z,97077.16
2023-04-06T10:18:00.460Z,97076.17
2023-04-06T10:20:28.827Z,97079.20
2023-04-06T10:23:05.475Z,97073.60
2023-04-06T10:25:34.337Z,97069.17
2023-04-06T10:28:03.161Z,97066.23
2023-04-06T10:30:34.193Z,97064.88
2023-04-06T10:33:14.782Z,97060.83
2023-04-06T10:35:43.030Z,97059.88
2023-04-06T10:38:12.831Z,97062.63
2023-04-06T10:40:42.149Z,97060.20
2023-04-06T10:43:20.574Z,97055.29
2023-04-06T10:45:58.683Z,97053.07
2023-04-06T10:48:41.640Z,97053.77
2023-04-06T10:51:19.416Z,97054.50
2023-04-06T10:53:49.365Z,97050.61
2023-04-06T10:56:18.691Z,97049.45
2023-04-06T10:58:56.892Z,97053.15
2023-04-06T11:01:27.324Z,97052.39
2023-04-06T11:03:57.403Z,97053.27
2023-04-06T11:06:27.988Z,97054.04
2023-04-06T11:08:56.854Z,97050.90
2023-04-06T11:11:27.492Z,97057.14
2023-04-06T11:14:02.217Z,97056.59
2023-04-06T11:16:33.271Z,97058.61
2023-04-06T11:19:02.733Z,97061.12
2023-04-06T11:21:50.105Z,97065.73
2023-04-06T11:24:20.528Z,97068.19
2023-04-06T11:26:54.935Z,97065.86
2023-04-06T11:29:24.925Z,97067.38
2023-04-06T11:31:54.523Z,97062.12
2023-04-06T11:34:23.830Z,97057.30
2023-04-06T11:36:58.277Z,97052.73
2023-04-06T11:39:27.815Z,97060.05
2023-04-06T11:42:00.161Z,97053.16
2023-04-06T11:44:50.593Z,97054.96
2023-04-06T11:47:19.963Z,97053.41
2023-04-06T11:49:51.479Z,97056.06
2023-04-06T11:52:21.219Z,97059.23
2023-04-06T11:54:50.588Z,97060.48
2023-04-06T11:57:19.483Z,97057.14
2023-04-06T11:59:48.548Z,97064.75
2023-04-06T12:02:16.809Z,97064.46
2023-04-06T12:04:45.522Z,97065.39
2023-04-06T12:07:14.299Z,97058.14
2023-04-06T12:09:42.663Z,97054.75
2023-04-06T12:12:10.574Z,97051.00
2023-04-06T12:14:39.747Z,97052.13
2023-04-06T12:17:08.018Z,97056.14
2023-04-06T12:19:36.673Z,97060.39
2023-04-06T12:22:06.245Z,97058.77
2023-04-06T12:24:34.496Z,97057.33
2023-04-06T12:27:10.091Z,97054.70
2023-04-06T12:29:40.346Z,97055.74
2023-04-06T12:32:09.526Z,97050.89
2023-04-06T12:34:38.585Z,97046.07
2023-04-06T12:37:07.322Z,97051.67
2023-04-06T12:39:35.475Z,97052.52
2023-04-06T12:42:04.527Z,97054.59
2023-04-06T12:44:32.896Z,97048.18
2023-04-06T12:47:02.482Z,97048.30
2023-04-06T12:49:31.605Z,97052.35
2023-04-06T12:52:06.851Z,97050.24
2023-04-06T12:54:37.290Z,97056.13
2023-04-06T12:57:05.741Z,97055.42
2023-04-06T12:59:36.678Z,97052.72
2023-04-06T13:02:06.612Z,97050.02
2023-04-06T13:04:34.841Z,97042.84
2023-04-06T13:07:07.125Z,97041.13
2023-04-06T13:09:35.405Z,97041.20
2023-04-06T13:14:53.730Z,97041.89
2023-04-06T13:17:22.514Z,97049.05
2023-04-06T13:19:51.054Z,97047.55
2023-04-06T13:22:20.952Z,97044.95
2023-04-06T13:24:48.998Z,97039.81
2023-04-06T13:27:17.141Z,97035.67
2023-04-06T13:29:45.433Z,97030.75
2023-04-06T13:32:13.612Z,97031.88
2023-04-06T13:34:45.764Z,97035.03
2023-04-06T13:37:14.562Z,97038.73
2023-04-06T13:39:42.712Z,97036.23
2023-04-06T13:42:11.248Z,97030.95
2023-04-06T13:44:39.319Z,97028.35
2023-04-06T13:47:07.999Z,97026.92
2023-04-06T13:49:37.173Z,97028.70
2023-04-06T13:52:06.904Z,97028.35
2023-04-06T13:54:35.933Z,97024.84
2023-04-06T13:57:04.764Z,97024.61
2023-04-06T13:59:35.897Z,97032.50
2023-04-06T14:02:04.564Z,97027.20
2023-04-06T14:04:33.462Z,97026.12
2023-04-06T14:07:01.993Z,97017.27
2023-04-06T14:09:30.935Z,97019.87
2023-04-06T14:11:59.482Z,97016.45
2023-04-06T14:14:28.594Z,97020.35
2023-04-06T14:16:58.680Z,97023.77
2023-04-06T14:19:27.256Z,97022.15
2023-04-06T14:21:55.449Z,97020.19
2023-04-06T14:24:24.184Z,97020.75
2023-04-06T14:26:52.362Z,97019.60
2023-04-06T14:29:21.506Z,97020.15
2023-04-06T14:31:49.697Z,97021.63
2023-04-06T14:34:18.434Z,97018.04
2023-04-06T14:36:47.507Z,97019.65
2023-04-06T14:39:15.793Z,97017.09
2023-04-06T14:41:44.466Z,97017.05
2023-04-06T14:44:13.473Z,97014.23
2023-04-06T14:46:44.723Z,97010.33
2023-04-06T14:49:14.345Z,97010.77
2023-04-06T14:51:43.174Z,97010.32
2023-04-06T14:54:11.760Z,97011.80
2023-04-06T14:56:39.941Z,97011.35
2023-04-06T14:59:08.956Z,97015.06
2023-04-06T15:01:38.342Z,97010.73
2023-04-06T15:04:07.154Z,97008.09
2023-04-06T15:06:37.259Z,97002.89
2023-04-06T15:09:05.524Z,97006.31
2023-04-06T15:11:33.630Z,97010.45
2023-04-06T15:14:02.866Z,97013.35
2023-04-06T15:16:33.718Z,97006.86
2023-04-06T15:19:02.523Z,97006.30
2023-04-06T15:21:33.661Z,97009.85
2023-04-06T15:24:01.737Z,97011.91
2023-04-06T15:26:30.452Z,97009.48
2023-04-06T15:28:58.600Z,97011.52
2023-04-06T15:31:37.399Z,97016.70
2023-04-06T15:34:09.428Z,97011.08
2023-04-06T15:36:39.030Z,97014.90
2023-04-06T15:39:09.886Z,97015.07
2023-04-06T15:41:39.264Z,97017.05
2023-04-06T15:44:07.524Z,97016.38
2023-04-06T15:46:36.749Z,97017.13
2023-04-06T15:49:05.041Z,97019.72
2023-04-06T15:51:33.898Z,97022.98
2023-04-06T15:54:01.990Z,97017.77
2023-04-06T15:56:30.659Z,97019.08
2023-04-06T15:59:00.923Z,97011.52
2023-04-06T16:01:29.129Z,97013.03
2023-04-06T16:03:58.740Z,97014.23
2023-04-06T16:06:27.442Z,97013.83
2023-04-06T16:08:58.356Z,97014.63
2023-04-06T16:11:26.670Z,97008.02
2023-04-06T16:13:55.604Z,97009.89
2023-04-06T16:16:24.627Z,97003.87
2023-04-06T16:18:53.052Z,97003.39
2023-04-06T16:21:21.680Z,97000.33
2023-04-06T16:23:49.701Z,96999.69
2023-04-06T16:26:18.298Z,96999.73
2023-04-06T16:28:47.744Z,97002.67
2023-04-06T16:31:21.411Z,97006.47
2023-04-06T16:33:50.574Z,97005.55
2023-04-06T16:36:28.566Z,97008.05
2023-04-06T16:38:56.859Z,97005.88
2023-04-06T16:41:25.448Z,97003.74
2023-04-06T16:43:55.016Z,97006.78
2023-04-06T16:46:30.909Z,97008.17
2023-04-06T16:49:00.946Z,97007.59
2023-04-06T16:51:30.264Z,97008.05
2023-04-06T16:53:59.002Z,97007.02
2023-04-06T16:56:27.675Z,97007.14
2023-04-06T16:58:56.009Z,97002.13
2023-04-06T17:01:26.397Z,96999.98
2023-04-06T17:03:55.205Z,97002.88
2023-04-06T17:06:24.056Z,97002.52
2023-04-06T17:08:54.103Z,97000.65
2023-04-06T17:11:28.664Z,97000.05
2023-04-06T17:14:01.109Z,97002.32
2023-04-06T17:16:32.368Z,97005.67
2023-04-06T17:19:00.522Z,97007.81
2023-04-06T17:21:29.184Z,97007.86
2023-04-06T17:23:57.273Z,97007.50
2023-04-06T17:26:26.630Z,97007.45
2023-04-06T17:28:54.529Z,97010.45
2023-04-06T17:31:22.790Z,97010.52
2023-04-06T17:33:51.698Z,97014.42
2023-04-06T17:36:20.609Z,97010.77
2023-04-06T17:38:54.011Z,97018.96
2023-04-06T17:41:23.203Z,97022.20
2023-04-06T17:43:51.600Z,97018.05
2023-04-06T17:46:21.465Z,97013.39
2023-04-06T17:48:51.226Z,97017.77
2023-04-06T17:51:20.742Z,97019.44
2023-04-06T17:53:49.092Z,97017.13
2023-04-06T17:56:17.366Z,97018.80
2023-04-06T17:58:45.959Z,97022.91
2023-04-06T18:01:20.537Z,97018.65
2023-04-06T18:03:48.948Z,97016.57
2023-04-06T18:06:17.802Z,97022.58
2023-04-06T18:08:46.115Z,97014.79
2023-04-06T18:11:18.584Z,97016.30
2023-04-06T18:13:46.738Z,97017.22
2023-04-06T18:16:22.916Z,97017.17
2023-04-06T18:18:53.239Z,97013.87
2023-04-06T18:21:21.325Z,97016.02
2023-04-06T18:23:49.435Z,97020.08
2023-04-06T18:26:18.414Z,97020.87
2023-04-06T18:28:46.767Z,97019.56
2023-04-06T18:31:14.992Z,97023.39
2023-04-06T18:33:44.134Z,97026.41
2023-04-06T18:36:12.180Z,97024.77
2023-04-06T18:38:44.677Z,97026.41
2023-04-06T18:41:14.654Z,97030.35
2023-04-06T18:43:43.072Z,97025.52
2023-04-06T18:46:13.445Z,97026.25
2023-04-06T18:48:42.169Z,97023.26
2023-04-06T18:51:10.661Z,97027.84
2023-04-06T18:53:40.086Z,97024.02
2023-04-06T18:56:19.192Z,97029.28
2023-04-06T18:58:49.569Z,97029.35
2023-04-06T19:01:25.762Z,97030.51
2023-04-06T19:03:55.726Z,97039.48
2023-04-06T19:06:24.185Z,97044.25
2023-04-06T19:08:52.331Z,97046.99
2023-04-06T19:11:25.366Z,97051.81
2023-04-06T19:13:54.506Z,97050.38
2023-04-06T19:16:25.293Z,97058.03
2023-04-06T19:18:54.575Z,97058.23
2023-04-06T19:21:24.900Z,97059.34
2023-04-06T19:23:55.444Z,97056.70
2023-04-06T19:26:27.971Z,97052.69
2023-04-06T19:28:56.187Z,97053.11
2023-04-06T19:31:26.180Z,97057.18
2023-04-06T19:33:55.365Z,97052.80
2023-04-06T19:36:26.499Z,97050.57
2023-04-06T19:38:55.551Z,97048.58
2023-04-06T19:41:24.290Z,97047.82
2023-04-06T19:43:52.260Z,97044.87
2023-04-06T19:46:21.744Z,97043.83
2023-04-06T19:48:50.162Z,97043.35
2023-04-06T19:51:18.676Z,97045.67
2023-04-06T19:53:47.438Z,97040.05
2023-04-06T19:56:16.414Z,97037.18
2023-04-06T19:58:44.657Z,97040.27
2023-04-06T20:01:12.640Z,97042.36
2023-04-06T20:03:41.373Z,97043.91
2023-04-06T20:06:11.198Z,97052.64
2023-04-06T20:08:39.452Z,97057.45
2023-04-06T20:11:09.047Z,97057.02
2023-04-06T20:13:37.739Z,97057.85
2023-04-06T20:16:05.853Z,97052.31
2023-04-06T20:18:47.717Z,97054.51
2023-04-06T20:21:16.100Z,97049.65
2023-04-06T20:23:44.569Z,97050.36
2023-04-06T20:26:12.562Z,97048.81
2023-04-06T20:28:41.030Z,97055.23
2023-04-06T20:31:16.438Z,97049.45
2023-04-06T20:33:44.673Z,97047.39
2023-04-06T20:36:12.922Z,97050.57
2023-04-06T20:38:47.980Z,97053.88
2023-04-06T20:41:16.641Z,97055.16
2023-04-06T20:43:45.437Z,97057.61
2023-04-06T20:46:19.617Z,97053.76
2023-04-06T20:48:47.842Z,97052.77
2023-04-06T20:51:19.917Z,97055.03
2023-04-06T20:53:48.572Z,97059.58
2023-04-06T20:56:21.947Z,97059.49
2023-04-06T20:58:50.515Z,97058.30
2023-04-06T21:01:18.559Z,97061.13
2023-04-06T21:03:48.854Z,97058.14
2023-04-06T21:06:17.143Z,97056.90
2023-04-06T21:08:45.405Z,97054.20
2023-04-06T21:11:13.619Z,97055.35
2023-04-06T21:13:41.959Z,97061.52
2023-04-06T21:16:10.474Z,97065.35
2023-04-06T21:18:39.122Z,97067.48
2023-04-06T21:21:07.141Z,97071.35
2023-04-06T21:23:35.773Z,97068.96
2023-04-06T21:26:03.974Z,97068.91
2023-04-06T21:28:32.471Z,97066.92
2023-04-06T21:31:00.922Z,97069.77
2023-04-06T21:33:36.106Z,97066.97
2023-04-06T21:36:06.355Z,97065.84
2023-04-06T21:38:36.604Z,97063.66
2023-04-06T21:41:04.877Z,97061.67
2023-04-06T21:43:34.091Z,97061.30
2023-04-06T21:46:02.683Z,97061.20
2023-04-06T21:48:32.176Z,97063.42
2023-04-06T21:51:00.274Z,97061.41
2023-04-06T21:53:28.606Z,97057.65
2023-04-06T21:55:56.760Z,97057.70
2023-04-06T21:58:26.566Z,97055.39
2023-04-06T22:00:54.919Z,97052.17
2023-04-06T22:03:23.508Z,97053.71
2023-04-06T22:05:52.678Z,97053.72
2023-04-06T22:08:33.393Z,97053.28
2023-04-06T22:11:08.097Z,97056.87
2023-04-06T22:13:36.889Z,97054.23
2023-04-06T22:16:05.624Z,97062.77
2023-04-06T22:18:38.079Z,97061.70
2023-04-06T22:21:08.455Z,97058.50
2023-04-06T22:23:42.273Z,97057.98
2023-04-06T22:26:13.622Z,97056.32
2023-04-06T22:28:42.985Z,97050.70
2023-04-06T22:31:10.926Z,97050.73
2023-04-06T22:33:39.401Z,97045.31
2023-04-06T22:36:07.698Z,97042.21
2023-04-06T22:38:36.503Z,97037.98
2023-04-06T22:41:05.648Z,97044.73
2023-04-06T22:43:35.162Z,97047.08
2023-04-06T22:46:03.043Z,97048.27
2023-04-06T22:48:31.111Z,97047.23
2023-04-06T22:50:59.336Z,97048.99
2023-04-06T22:53:27.869Z,97050.38
2023-04-06T22:55:56.119Z,97049.27
2023-04-06T22:58:24.424Z,97056.08
2023-04-06T23:00:53.636Z,97064.67
2023-04-06T23:03:25.114Z,97069.17
2023-04-06T23:05:53.364Z,97060.84
2023-04-06T23:08:21.408Z,97054.98
2023-04-06T23:10:50.609Z,97046.72
2023-04-06T23:13:19.208Z,97050.48
2023-04-06T23:15:47.378Z,97052.09
2023-04-06T23:18:18.690Z,97060.83
2023-04-06T23:20:46.696Z,97061.12
2023-04-06T23:23:14.761Z,97059.32
2023-04-06T23:25:43.667Z,97057.36
2023-04-06T23:28:11.939Z,97053.86
2023-04-06T23:30:42.344Z,97058.95
2023-04-06T23:33:11.513Z,97059.95
2023-04-06T23:35:39.561Z,97056.16
2023-04-06T23:38:07.980Z,97058.56
2023-04-06T23:40:39.309Z,97053.34
2023-04-06T23:43:07.237Z,97052.43
2023-04-06T23:45:35.567Z,97055.79
2023-04-06T23:48:11.051Z,97059.66
2023-04-06T23:50:39.546Z,97061.33
2023-04-06T23:53:07.424Z,97063.60
2023-04-06T23:55:35.768Z,97063.48
2023-04-06T23:58:04.233Z,97064.32
